sensor_id;sensor_type;location;lat;lon;timestamp;pressure;altitude;pressure_sealevel;temperature;humidity
45369;BME280;51342;55.250;37.668;2022-08-04T06:07:48;100037.06;;;25.58;49.24
45369;BME280;51342;55.250;37.668;2022-08-04T06:10:20;100039.69;;;25.69;49.75
45369;BME280;51342;55.250;37.668;2022-08-04T06:12:54;100040.63;;;25.79;49.20
45369;BME280;51342;55.250;37.668;2022-08-04T06:15:28;100051.25;;;25.89;48.03
45369;BME280;51342;55.250;37.668;2022-08-04T06:18:03;100047.69;;;25.86;47.59
45369;BME280;51342;55.250;37.668;2022-08-04T06:20:38;100043.31;;;25.82;47.30
45369;BME280;51342;55.250;37.668;2022-08-04T06:23:14;100047.72;;;25.78;47.26
45369;BME280;51342;55.250;37.668;2022-08-04T06:25:49;100038.00;;;25.83;48.04
45369;BME280;51342;55.250;37.668;2022-08-04T06:28:22;100040.63;;;25.97;47.95
45369;BME280;51342;55.250;37.668;2022-08-04T06:30:55;100039.78;;;26.00;47.85
45369;BME280;51342;55.250;37.668;2022-08-04T06:33:33;100045.97;;;26.06;47.57
45369;BME280;51342;55.250;37.668;2022-08-04T06:36:05;100039.75;;;26.18;46.86
45369;BME280;51342;55.250;37.668;2022-08-04T06:38:38;100030.03;;;26.23;46.96
45369;BME280;51342;55.250;37.668;2022-08-04T06:41:11;100043.31;;;26.28;47.59
45369;BME280;51342;55.250;37.668;2022-08-04T06:43:43;100043.28;;;26.35;47.90
45369;BME280;51342;55.250;37.668;2022-08-04T06:46:17;100045.94;;;26.38;48.08
45369;BME280;51342;55.250;37.668;2022-08-04T06:48:50;100036.22;;;26.47;47.12
45369;BME280;51342;55.250;37.668;2022-08-04T06:51:22;100036.22;;;26.53;46.73
45369;BME280;51342;55.250;37.668;2022-08-04T06:53:54;100037.97;;;26.57;46.29
45369;BME280;51342;55.250;37.668;2022-08-04T06:56:26;100043.31;;;26.49;45.91
45369;BME280;51342;55.250;37.668;2022-08-04T06:59:03;100041.53;;;26.48;46.82
45369;BME280;51342;55.250;37.668;2022-08-04T07:01:36;100045.06;;;26.53;46.84
45369;BME280;51342;55.250;37.668;2022-08-04T07:04:09;100037.97;;;26.57;45.46
45369;BME280;51342;55.250;37.668;2022-08-04T07:06:41;100040.63;;;26.57;45.90
45369;BME280;51342;55.250;37.668;2022-08-04T07:09:13;100045.03;;;26.67;45.53
45369;BME280;51342;55.250;37.668;2022-08-04T07:11:46;100036.19;;;26.68;46.25
45369;BME280;51342;55.250;37.668;2022-08-04T07:14:19;100042.38;;;26.62;46.22
45369;BME280;51342;55.250;37.668;2022-08-04T07:16:52;100044.16;;;26.60;46.65
45369;BME280;51342;55.250;37.668;2022-08-04T07:19:24;100041.50;;;26.54;46.94
45369;BME280;51342;55.250;37.668;2022-08-04T07:21:57;100045.06;;;26.52;46.61
45369;BME280;51342;55.250;37.668;2022-08-04T07:24:32;100041.53;;;26.47;46.87
45369;BME280;51342;55.250;37.668;2022-08-04T07:27:04;100040.63;;;26.40;46.93
45369;BME280;51342;55.250;37.668;2022-08-04T07:29:37;100038.00;;;26.34;46.83
45369;BME280;51342;55.250;37.668;2022-08-04T07:32:09;100043.28;;;26.29;46.71
45369;BME280;51342;55.250;37.668;2022-08-04T07:34:42;100034.44;;;26.24;46.29
45369;BME280;51342;55.250;37.668;2022-08-04T07:37:14;100028.25;;;26.21;46.34
45369;BME280;51342;55.250;37.668;2022-08-04T07:39:45;100037.13;;;26.18;46.27
45369;BME280;51342;55.250;37.668;2022-08-04T07:42:18;100036.22;;;26.13;46.49
45369;BME280;51342;55.250;37.668;2022-08-04T07:44:50;100040.66;;;26.12;45.86
45369;BME280;51342;55.250;37.668;2022-08-04T07:47:22;100033.59;;;26.22;46.35
45369;BME280;51342;55.250;37.668;2022-08-04T07:49:54;100037.09;;;26.38;46.93
45369;BME280;51342;55.250;37.668;2022-08-04T07:52:26;100039.75;;;26.39;45.63
45369;BME280;51342;55.250;37.668;2022-08-04T07:54:58;100038.88;;;26.28;45.04
45369;BME280;51342;55.250;37.668;2022-08-04T07:57:30;100035.34;;;26.15;44.93
45369;BME280;51342;55.250;37.668;2022-08-04T08:00:04;100044.19;;;26.05;45.35
45369;BME280;51342;55.250;37.668;2022-08-04T08:02:44;100042.44;;;25.98;44.58
45369;BME280;51342;55.250;37.668;2022-08-04T08:05:19;100038.00;;;26.02;45.49
45369;BME280;51342;55.250;37.668;2022-08-04T08:07:51;100043.31;;;26.17;44.98
45369;BME280;51342;55.250;37.668;2022-08-04T08:10:23;100038.88;;;26.39;45.30
45369;BME280;51342;55.250;37.668;2022-08-04T08:12:55;100043.31;;;26.41;45.59
45369;BME280;51342;55.250;37.668;2022-08-04T08:15:27;100036.19;;;26.40;44.78
45369;BME280;51342;55.250;37.668;2022-08-04T08:17:59;100043.31;;;26.41;45.17
45369;BME280;51342;55.250;37.668;2022-08-04T08:20:31;100042.41;;;26.39;45.57
45369;BME280;51342;55.250;37.668;2022-08-04T08:23:03;100046.84;;;26.42;44.53
45369;BME280;51342;55.250;37.668;2022-08-04T08:25:34;100039.72;;;26.55;44.45
45369;BME280;51342;55.250;37.668;2022-08-04T08:28:06;100046.78;;;26.74;44.10
45369;BME280;51342;55.250;37.668;2022-08-04T08:30:38;100047.66;;;26.78;44.22
45369;BME280;51342;55.250;37.668;2022-08-04T08:33:12;100050.31;;;26.76;44.16
45369;BME280;51342;55.250;37.668;2022-08-04T08:35:53;100042.38;;;26.67;44.05
45369;BME280;51342;55.250;37.668;2022-08-04T08:38:39;100039.72;;;26.59;44.55
45369;BME280;51342;55.250;37.668;2022-08-04T08:53:43;100034.25;;;27.16;45.30
45369;BME280;51342;55.250;37.668;2022-08-04T09:08:25;100019.66;;;27.87;43.05
45369;BME280;51342;55.250;37.668;2022-08-04T09:11:11;100019.53;;;28.01;43.08
45369;BME280;51342;55.250;37.668;2022-08-04T09:13:59;100017.81;;;27.98;42.61
45369;BME280;51342;55.250;37.668;2022-08-04T09:16:41;100027.47;;;28.07;41.95
45369;BME280;51342;55.250;37.668;2022-08-04T09:19:32;100015.13;;;28.03;41.23
45369;BME280;51342;55.250;37.668;2022-08-04T09:22:24;100023.03;;;28.08;41.36
45369;BME280;51342;55.250;37.668;2022-08-04T09:25:02;100022.09;;;28.13;41.05
45369;BME280;51342;55.250;37.668;2022-08-04T09:30:16;100023.88;;;28.13;40.46
45369;BME280;51342;55.250;37.668;2022-08-04T09:33:05;100025.72;;;28.05;39.96
45369;BME280;51342;55.250;37.668;2022-08-04T09:35:47;100029.38;;;27.93;40.41
45369;BME280;51342;55.250;37.668;2022-08-04T09:44:24;100015.31;;;27.77;41.45
45369;BME280;51342;55.250;37.668;2022-08-04T09:47:18;100017.97;;;27.77;41.85
45369;BME280;51342;55.250;37.668;2022-08-04T09:49:57;100024.09;;;27.88;41.15
45369;BME280;51342;55.250;37.668;2022-08-04T10:01:01;100019.50;;;28.09;41.55
45369;BME280;51342;55.250;37.668;2022-08-04T10:03:37;100015.88;;;28.16;40.01
45369;BME280;51342;55.250;37.668;2022-08-04T10:17:33;100016.69;;;28.25;39.93
45369;BME280;51342;55.250;37.668;2022-08-04T10:26:03;100007.75;;;28.31;40.21
45369;BME280;51342;55.250;37.668;2022-08-04T10:28:48;100017.50;;;28.31;39.27
45369;BME280;51342;55.250;37.668;2022-08-04T10:31:27;100018.38;;;28.34;39.99
45369;BME280;51342;55.250;37.668;2022-08-04T10:34:09;100019.09;;;28.51;40.50
45369;BME280;51342;55.250;37.668;2022-08-04T10:37:01;100018.03;;;28.68;41.34
45369;BME280;51342;55.250;37.668;2022-08-04T10:39:58;100016.19;;;28.74;40.62
45369;BME280;51342;55.250;37.668;2022-08-04T10:43:27;100021.59;;;28.67;40.84
45369;BME280;51342;55.250;37.668;2022-08-04T10:45:55;100022.38;;;28.75;39.83
45369;BME280;51342;55.250;37.668;2022-08-04T10:51:47;100031.03;;;28.92;40.84
45369;BME280;51342;55.250;37.668;2022-08-04T10:57:40;100026.59;;;28.99;38.83
45369;BME280;51342;55.250;37.668;2022-08-04T11:00:19;100035.47;;;28.96;38.75
45369;BME280;51342;55.250;37.668;2022-08-04T11:05:55;100026.69;;;28.87;39.90
45369;BME280;51342;55.250;37.668;2022-08-04T11:08:39;100035.50;;;28.92;40.74
45369;BME280;51342;55.250;37.668;2022-08-04T11:11:18;100036.34;;;28.98;38.62
45369;BME280;51342;55.250;37.668;2022-08-04T11:14:07;100032.81;;;28.96;39.24
45369;BME280;51342;55.250;37.668;2022-08-04T11:16:56;100032.72;;;29.06;39.45
45369;BME280;51342;55.250;37.668;2022-08-04T11:19:37;100032.66;;;29.09;39.78
45369;BME280;51342;55.250;37.668;2022-08-04T11:25:11;100031.81;;;29.07;40.24
45369;BME280;51342;55.250;37.668;2022-08-04T11:30:51;100033.72;;;28.95;40.34
45369;BME280;51342;55.250;37.668;2022-08-04T11:33:34;100037.28;;;28.94;39.65
45369;BME280;51342;55.250;37.668;2022-08-04T11:36:19;100028.47;;;28.88;39.81
45369;BME280;51342;55.250;37.668;2022-08-04T11:39:11;100021.31;;;28.91;39.98
45369;BME280;51342;55.250;37.668;2022-08-04T11:41:51;100021.31;;;28.90;38.78
45369;BME280;51342;55.250;37.668;2022-08-04T11:52:44;100005.47;;;28.79;39.10
45369;BME280;51342;55.250;37.668;2022-08-04T11:55:17;100015.19;;;28.83;38.69
45369;BME280;51342;55.250;37.668;2022-08-04T11:57:51;100013.38;;;28.88;39.53
45369;BME280;51342;55.250;37.668;2022-08-04T12:00:27;100006.28;;;28.86;39.16
45369;BME280;51342;55.250;37.668;2022-08-04T12:12:20;100005.34;;;28.90;40.01
45369;BME280;51342;55.250;37.668;2022-08-04T12:15:02;100012.34;;;29.01;40.32
45369;BME280;51342;55.250;37.668;2022-08-04T12:20:30;100002.50;;;29.07;39.24
45369;BME280;51342;55.250;37.668;2022-08-04T12:23:05;100002.44;;;29.10;38.96
45369;BME280;51342;55.250;37.668;2022-08-04T12:54:39;99991.47;;;29.91;36.18
45369;BME280;51342;55.250;37.668;2022-08-04T12:57:16;99987.41;;;29.69;38.63
45369;BME280;51342;55.250;37.668;2022-08-04T12:59:48;99999.19;;;29.54;38.71
45369;BME280;51342;55.250;37.668;2022-08-04T13:02:26;99992.19;;;29.45;38.82
45369;BME280;51342;55.250;37.668;2022-08-04T13:05:04;99980.75;;;29.37;38.73
45369;BME280;51342;55.250;37.668;2022-08-04T13:07:42;99990.56;;;29.35;38.49
45369;BME280;51342;55.250;37.668;2022-08-04T13:10:16;99990.66;;;29.29;38.35
45369;BME280;51342;55.250;37.668;2022-08-04T13:12:56;99987.22;;;29.19;39.01
45369;BME280;51342;55.250;37.668;2022-08-04T13:15:28;99989.06;;;29.14;38.08
45369;BME280;51342;55.250;37.668;2022-08-04T13:18:09;99991.88;;;29.03;37.66
45369;BME280;51342;55.250;37.668;2022-08-04T13:20:42;99984.03;;;28.90;38.44
45369;BME280;51342;55.250;37.668;2022-08-04T13:23:16;99990.44;;;28.76;38.19
45369;BME280;51342;55.250;37.668;2022-08-04T13:25:50;99992.19;;;28.76;39.76
45369;BME280;51342;55.250;37.668;2022-08-04T13:28:25;99994.00;;;28.74;38.48
45369;BME280;51342;55.250;37.668;2022-08-04T13:31:04;99989.66;;;28.67;38.76
45369;BME280;51342;55.250;37.668;2022-08-04T13:33:38;99987.94;;;28.61;39.38
45369;BME280;51342;55.250;37.668;2022-08-04T13:36:12;99986.19;;;28.57;38.92
45369;BME280;51342;55.250;37.668;2022-08-04T13:38:56;99985.41;;;28.50;39.85
45369;BME280;51342;55.250;37.668;2022-08-04T13:41:28;99988.91;;;28.52;39.26
45369;BME280;51342;55.250;37.668;2022-08-04T13:44:03;99979.16;;;28.55;39.05
45369;BME280;51342;55.250;37.668;2022-08-04T13:46:45;99983.59;;;28.51;38.54
45369;BME280;51342;55.250;37.668;2022-08-04T13:49:18;99976.63;;;28.42;37.87
45369;BME280;51342;55.250;37.668;2022-08-04T13:51:53;99986.34;;;28.42;38.87
45369;BME280;51342;55.250;37.668;2022-08-04T13:54:36;99980.19;;;28.40;38.65
45369;BME280;51342;55.250;37.668;2022-08-04T13:57:16;99983.72;;;28.40;37.93
45369;BME280;51342;55.250;37.668;2022-08-04T13:59:54;99973.09;;;28.40;38.87
45369;BME280;51342;55.250;37.668;2022-08-04T14:02:45;99976.63;;;28.42;38.56
45369;BME280;51342;55.250;37.668;2022-08-04T14:05:25;99967.78;;;28.39;38.84
45369;BME280;51342;55.250;37.668;2022-08-04T14:08:11;99973.97;;;28.41;39.31
45369;BME280;51342;55.250;37.668;2022-08-04T14:10:53;99972.25;;;28.35;38.82
45369;BME280;51342;55.250;37.668;2022-08-04T14:13:31;99966.06;;;28.30;39.69
45369;BME280;51342;55.250;37.668;2022-08-04T14:16:17;99964.38;;;28.23;38.82
45369;BME280;51342;55.250;37.668;2022-08-04T14:18:59;99959.97;;;28.19;39.88
45369;BME280;51342;55.250;37.668;2022-08-04T14:21:35;99962.63;;;28.19;39.09
45369;BME280;51342;55.250;37.668;2022-08-04T14:24:07;99966.16;;;28.21;39.57
45369;BME280;51342;55.250;37.668;2022-08-04T14:26:38;99959.94;;;28.22;39.99
45369;BME280;51342;55.250;37.668;2022-08-04T14:29:13;99961.72;;;28.21;38.73
45369;BME280;51342;55.250;37.668;2022-08-04T14:31:49;99962.69;;;28.13;40.19
45369;BME280;51342;55.250;37.668;2022-08-04T14:34:25;99960.94;;;28.12;39.54
45369;BME280;51342;55.250;37.668;2022-08-04T14:37:05;99962.94;;;27.88;40.34
45369;BME280;51342;55.250;37.668;2022-08-04T14:39:39;99961.91;;;28.02;39.59
45369;BME280;51342;55.250;37.668;2022-08-04T14:42:11;99956.66;;;27.97;40.82
45369;BME280;51342;55.250;37.668;2022-08-04T14:44:56;99959.34;;;27.92;40.28
45369;BME280;51342;55.250;37.668;2022-08-04T14:47:42;99963.78;;;27.90;40.45
45369;BME280;51342;55.250;37.668;2022-08-04T14:50:14;99965.56;;;27.90;39.77
45369;BME280;51342;55.250;37.668;2022-08-04T14:52:45;99966.50;;;27.87;41.12
45369;BME280;51342;55.250;37.668;2022-08-04T14:55:22;99969.22;;;27.80;40.82
45369;BME280;51342;55.250;37.668;2022-08-04T14:57:53;99972.78;;;27.76;40.30
45369;BME280;51342;55.250;37.668;2022-08-04T15:00:30;99977.25;;;27.70;42.71
45369;BME280;51342;55.250;37.668;2022-08-04T15:03:05;99971.09;;;27.64;41.74
45369;BME280;51342;55.250;37.668;2022-08-04T15:05:40;99970.19;;;27.62;42.28
45369;BME280;51342;55.250;37.668;2022-08-04T15:08:13;99965.81;;;27.56;42.41
45369;BME280;51342;55.250;37.668;2022-08-04T15:10:45;99971.19;;;27.52;42.91
45369;BME280;51342;55.250;37.668;2022-08-04T15:13:17;99974.72;;;27.52;43.55
45369;BME280;51342;55.250;37.668;2022-08-04T15:15:49;99970.31;;;27.48;42.16
45369;BME280;51342;55.250;37.668;2022-08-04T15:18:21;99963.25;;;27.44;43.77
45369;BME280;51342;55.250;37.668;2022-08-04T15:20:53;99961.47;;;27.44;44.11
45369;BME280;51342;55.250;37.668;2022-08-04T15:23:25;99965.06;;;27.40;41.84
45369;BME280;51342;55.250;37.668;2022-08-04T15:25:59;99965.03;;;27.43;42.79
45369;BME280;51342;55.250;37.668;2022-08-04T15:28:34;99957.97;;;27.41;41.79
45369;BME280;51342;55.250;37.668;2022-08-04T15:31:08;99961.47;;;27.44;43.11
45369;BME280;51342;55.250;37.668;2022-08-04T15:33:41;99967.69;;;27.42;41.95
45369;BME280;51342;55.250;37.668;2022-08-04T15:36:25;99963.28;;;27.38;42.50
45369;BME280;51342;55.250;37.668;2022-08-04T15:39:25;99964.22;;;27.32;41.14
45369;BME280;51342;55.250;37.668;2022-08-04T15:42:38;99965.09;;;27.28;42.36
45369;BME280;51342;55.250;37.668;2022-08-04T15:45:22;99960.69;;;27.27;41.00
45369;BME280;51342;55.250;37.668;2022-08-04T15:58:54;99967.75;;;27.31;41.84
45369;BME280;51342;55.250;37.668;2022-08-04T16:01:26;99974.84;;;27.31;41.74
45369;BME280;51342;55.250;37.668;2022-08-04T16:03:57;99969.53;;;27.31;42.79
45369;BME280;51342;55.250;37.668;2022-08-04T16:09:07;99979.31;;;27.29;42.79
45369;BME280;51342;55.250;37.668;2022-08-04T16:11:39;99975.75;;;27.27;42.38
45369;BME280;51342;55.250;37.668;2022-08-04T16:14:10;99979.28;;;27.27;43.31
45369;BME280;51342;55.250;37.668;2022-08-04T16:22:10;99974.03;;;27.21;44.09
45369;BME280;51342;55.250;37.668;2022-08-04T16:24:50;99974.06;;;27.18;44.51
45369;BME280;51342;55.250;37.668;2022-08-04T16:27:41;99975.84;;;27.14;44.59
45369;BME280;51342;55.250;37.668;2022-08-04T16:30:13;99976.75;;;27.12;45.96
45369;BME280;51342;55.250;37.668;2022-08-04T16:32:47;99971.44;;;27.00;46.49
45369;BME280;51342;55.250;37.668;2022-08-04T16:35:22;99981.22;;;26.91;47.09
45369;BME280;51342;55.250;37.668;2022-08-04T16:38:14;99987.50;;;26.74;47.66
45369;BME280;51342;55.250;37.668;2022-08-04T16:40:56;99982.22;;;26.63;47.76
45369;BME280;51342;55.250;37.668;2022-08-04T16:43:30;99983.13;;;26.54;48.73
45369;BME280;51342;55.250;37.668;2022-08-04T16:46:02;99984.94;;;26.45;49.76
45369;BME280;51342;55.250;37.668;2022-08-04T16:48:35;99984.94;;;26.31;50.42
45369;BME280;51342;55.250;37.668;2022-08-04T16:51:08;99989.38;;;26.21;51.26
45369;BME280;51342;55.250;37.668;2022-08-04T16:53:42;99984.97;;;26.08;51.64
45369;BME280;51342;55.250;37.668;2022-08-04T16:56:15;99990.25;;;25.97;52.39
45369;BME280;51342;55.250;37.668;2022-08-04T16:58:49;99985.88;;;25.84;53.45
45369;BME280;51342;55.250;37.668;2022-08-04T17:01:21;99984.94;;;25.68;53.91
45369;BME280;51342;55.250;37.668;2022-08-04T17:03:58;99985.81;;;25.55;54.08
45369;BME280;51342;55.250;37.668;2022-08-04T17:06:36;99984.91;;;25.44;55.38
45369;BME280;51342;55.250;37.668;2022-08-04T17:09:14;99980.47;;;25.29;54.72
45369;BME280;51342;55.250;37.668;2022-08-04T17:11:46;99993.69;;;25.18;55.69
45369;BME280;51342;55.250;37.668;2022-08-04T17:14:29;99990.06;;;25.01;55.78
45369;BME280;51342;55.250;37.668;2022-08-04T17:17:01;100002.41;;;24.93;55.89
45369;BME280;51342;55.250;37.668;2022-08-04T17:19:34;100003.25;;;24.85;56.45
45369;BME280;51342;55.250;37.668;2022-08-04T17:22:08;100002.31;;;24.74;56.91
45369;BME280;51342;55.250;37.668;2022-08-04T17:24:39;100006.66;;;24.62;57.85
45369;BME280;51342;55.250;37.668;2022-08-04T17:27:11;100009.25;;;24.51;58.22
45369;BME280;51342;55.250;37.668;2022-08-04T17:29:43;100007.38;;;24.36;58.71
45369;BME280;51342;55.250;37.668;2022-08-04T17:32:16;100009.94;;;24.25;58.75
45369;BME280;51342;55.250;37.668;2022-08-04T17:34:54;100011.59;;;24.13;59.53
45369;BME280;51342;55.250;37.668;2022-08-04T17:37:27;100013.28;;;24.04;59.63
45369;BME280;51342;55.250;37.668;2022-08-04T17:40:06;100010.69;;;24.09;59.44
45369;BME280;51342;55.250;37.668;2022-08-04T17:42:38;100016.88;;;24.13;59.61
45369;BME280;51342;55.250;37.668;2022-08-04T17:45:13;100014.25;;;24.13;59.50
45369;BME280;51342;55.250;37.668;2022-08-04T17:47:52;100021.22;;;24.03;59.80
45369;BME280;51342;55.250;37.668;2022-08-04T17:50:29;100019.41;;;23.99;59.59
45369;BME280;51342;55.250;37.668;2022-08-04T17:53:04;100027.31;;;23.94;59.43
45369;BME280;51342;55.250;37.668;2022-08-04T17:55:41;100024.63;;;23.88;60.12
45369;BME280;51342;55.250;37.668;2022-08-04T17:58:20;100025.41;;;23.78;60.23
45369;BME280;51342;55.250;37.668;2022-08-04T18:01:02;100020.03;;;23.70;60.27
45369;BME280;51342;55.250;37.668;2022-08-04T18:03:34;100031.47;;;23.69;60.15
45369;BME280;51342;55.250;37.668;2022-08-04T18:06:12;100032.16;;;23.51;60.66
45369;BME280;51342;55.250;37.668;2022-08-04T18:08:51;100034.63;;;23.35;61.12
45369;BME280;51342;55.250;37.668;2022-08-04T18:11:22;100038.81;;;23.17;61.60
45369;BME280;51342;55.250;37.668;2022-08-04T18:13:54;100037.72;;;23.00;61.94
45369;BME280;51342;55.250;37.668;2022-08-04T18:16:26;100045.41;;;22.85;62.69
45369;BME280;51342;55.250;37.668;2022-08-04T18:19:08;100044.28;;;22.64;63.14
45369;BME280;51342;55.250;37.668;2022-08-04T18:21:40;100045.03;;;22.57;63.70
45369;BME280;51342;55.250;37.668;2022-08-04T18:24:13;100049.25;;;22.46;63.50
45369;BME280;51342;55.250;37.668;2022-08-04T18:26:45;100052.66;;;22.36;64.17
45369;BME280;51342;55.250;37.668;2022-08-04T18:29:17;100061.34;;;22.32;63.83
45369;BME280;51342;55.250;37.668;2022-08-04T18:31:49;100066.53;;;22.26;64.24
45369;BME280;51342;55.250;37.668;2022-08-04T18:34:21;100067.31;;;22.18;64.38
45369;BME280;51342;55.250;37.668;2022-08-04T18:36:54;100061.88;;;22.11;64.75
45369;BME280;51342;55.250;37.668;2022-08-04T18:39:26;100059.19;;;22.08;65.42
45369;BME280;51342;55.250;37.668;2022-08-04T18:42:00;100063.50;;;22.03;64.94
45369;BME280;51342;55.250;37.668;2022-08-04T18:44:32;100055.56;;;22.01;64.74
45369;BME280;51342;55.250;37.668;2022-08-04T18:47:04;100051.13;;;21.99;65.37
45369;BME280;51342;55.250;37.668;2022-08-04T18:49:37;100062.53;;;21.98;65.28
45369;BME280;51342;55.250;37.668;2022-08-04T18:52:11;100059.88;;;21.96;65.68
45369;BME280;51342;55.250;37.668;2022-08-04T18:54:48;100058.06;;;21.95;65.43
45369;BME280;51342;55.250;37.668;2022-08-04T18:57:39;100059.72;;;21.88;65.75
45369;BME280;51342;55.250;37.668;2022-08-04T19:00:14;100061.47;;;21.88;65.70
45369;BME280;51342;55.250;37.668;2022-08-04T19:02:47;100059.72;;;21.88;65.29
45369;BME280;51342;55.250;37.668;2022-08-04T19:05:18;100061.44;;;21.86;65.78
45369;BME280;51342;55.250;37.668;2022-08-04T19:07:50;100064.06;;;21.85;65.94
45369;BME280;51342;55.250;37.668;2022-08-04T19:10:21;100065.75;;;21.83;65.89
45369;BME280;51342;55.250;37.668;2022-08-04T19:12:54;100053.31;;;21.73;66.10
45369;BME280;51342;55.250;37.668;2022-08-04T19:15:26;100055.94;;;21.73;66.15
45369;BME280;51342;55.250;37.668;2022-08-04T19:18:01;100067.28;;;21.68;66.04
45369;BME280;51342;55.250;37.668;2022-08-04T19:20:32;100060.25;;;21.67;66.70
45369;BME280;51342;55.250;37.668;2022-08-04T19:23:10;100059.31;;;21.65;66.67
45369;BME280;51342;55.250;37.668;2022-08-04T19:25:42;100060.19;;;21.66;66.55
45369;BME280;51342;55.250;37.668;2022-08-04T19:28:14;100064.47;;;21.61;66.91
45369;BME280;51342;55.250;37.668;2022-08-04T19:30:47;100060.13;;;21.61;66.64
45369;BME280;51342;55.250;37.668;2022-08-04T19:33:19;100055.69;;;21.60;67.31
45369;BME280;51342;55.250;37.668;2022-08-04T19:35:51;100061.00;;;21.62;67.37
45369;BME280;51342;55.250;37.668;2022-08-04T19:38:24;100064.53;;;21.62;67.32
45369;BME280;51342;55.250;37.668;2022-08-04T19:40:56;100065.41;;;21.61;67.56
45369;BME280;51342;55.250;37.668;2022-08-04T19:43:28;100060.97;;;21.60;67.31
45369;BME280;51342;55.250;37.668;2022-08-04T19:46:00;100062.69;;;21.57;67.49
45369;BME280;51342;55.250;37.668;2022-08-04T19:48:32;100062.63;;;21.55;67.57
45369;BME280;51342;55.250;37.668;2022-08-04T19:51:04;100067.88;;;21.54;67.36
45369;BME280;51342;55.250;37.668;2022-08-04T19:53:36;100066.06;;;21.51;67.29
45369;BME280;51342;55.250;37.668;2022-08-04T19:56:09;100075.75;;;21.52;67.96
45369;BME280;51342;55.250;37.668;2022-08-04T19:58:42;100065.13;;;21.49;67.21
45369;BME280;51342;55.250;37.668;2022-08-04T20:01:16;100070.50;;;21.54;67.06
45369;BME280;51342;55.250;37.668;2022-08-04T20:03:48;100060.75;;;21.50;67.88
45369;BME280;51342;55.250;37.668;2022-08-04T20:06:19;100069.53;;;21.49;67.89
45369;BME280;51342;55.250;37.668;2022-08-04T20:08:51;100062.50;;;21.49;67.50
45369;BME280;51342;55.250;37.668;2022-08-04T20:11:23;100064.22;;;21.47;67.44
45369;BME280;51342;55.250;37.668;2022-08-04T20:13:54;100062.47;;;21.46;67.87
45369;BME280;51342;55.250;37.668;2022-08-04T20:16:27;100066.88;;;21.47;68.11
45369;BME280;51342;55.250;37.668;2022-08-04T20:19:03;100062.44;;;21.45;68.23
45369;BME280;51342;55.250;37.668;2022-08-04T20:21:36;100052.69;;;21.39;68.41
45369;BME280;51342;55.250;37.668;2022-08-04T20:24:07;100065.00;;;21.41;67.78
45369;BME280;51342;55.250;37.668;2022-08-04T20:26:40;100064.97;;;21.40;67.50
45369;BME280;51342;55.250;37.668;2022-08-04T20:29:12;100071.13;;;21.40;67.53
45369;BME280;51342;55.250;37.668;2022-08-04T20:31:43;100064.13;;;21.41;67.64
45369;BME280;51342;55.250;37.668;2022-08-04T20:34:16;100055.25;;;21.37;67.39
45369;BME280;51342;55.250;37.668;2022-08-04T20:36:48;100059.66;;;21.38;67.80
45369;BME280;51342;55.250;37.668;2022-08-04T20:39:19;100067.53;;;21.37;68.24
45369;BME280;51342;55.250;37.668;2022-08-04T20:41:52;100064.88;;;21.35;68.26
45369;BME280;51342;55.250;37.668;2022-08-04T20:44:24;100062.19;;;21.32;68.12
45369;BME280;51342;55.250;37.668;2022-08-04T20:46:55;100047.13;;;21.27;68.27
45369;BME280;51342;55.250;37.668;2022-08-04T20:49:27;100063.91;;;21.30;69.02
45369;BME280;51342;55.250;37.668;2022-08-04T20:51:59;100063.78;;;21.26;68.96
45369;BME280;51342;55.250;37.668;2022-08-04T20:54:33;100069.91;;;21.25;68.85
45369;BME280;51342;55.250;37.668;2022-08-04T20:57:04;100054.91;;;21.21;68.58
45369;BME280;51342;55.250;37.668;2022-08-04T20:59:37;100064.63;;;21.25;68.30
45369;BME280;51342;55.250;37.668;2022-08-04T21:02:09;100065.53;;;21.25;68.62
45369;BME280;51342;55.250;37.668;2022-08-04T21:04:40;100067.25;;;21.23;68.76
45369;BME280;51342;55.250;37.668;2022-08-04T21:07:12;100064.59;;;21.22;68.56
45369;BME280;51342;55.250;37.668;2022-08-04T21:09:44;100058.38;;;21.20;68.67
45369;BME280;51342;55.250;37.668;2022-08-04T21:12:19;100069.78;;;21.20;69.02
45369;BME280;51342;55.250;37.668;2022-08-04T21:14:52;100067.16;;;21.18;68.76
45369;BME280;51342;55.250;37.668;2022-08-04T21:17:23;100060.91;;;21.15;68.48
45369;BME280;51342;55.250;37.668;2022-08-04T21:19:55;100057.38;;;21.13;68.75
45369;BME280;51342;55.250;37.668;2022-08-04T21:22:27;100063.47;;;21.10;68.87
45369;BME280;51342;55.250;37.668;2022-08-04T21:24:58;100071.41;;;21.13;68.95
45369;BME280;51342;55.250;37.668;2022-08-04T21:27:30;100070.50;;;21.11;68.74
45369;BME280;51342;55.250;37.668;2022-08-04T21:30:01;100077.53;;;21.11;68.81
45369;BME280;51342;55.250;37.668;2022-08-04T21:32:33;100073.06;;;21.08;68.43
45369;BME280;51342;55.250;37.668;2022-08-04T21:35:05;100066.91;;;21.06;69.00
45369;BME280;51342;55.250;37.668;2022-08-04T21:37:37;100076.41;;;21.00;69.29
45369;BME280;51342;55.250;37.668;2022-08-04T21:40:09;100066.66;;;20.94;69.42
45369;BME280;51342;55.250;37.668;2022-08-04T21:42:40;100070.09;;;20.93;69.05
45369;BME280;51342;55.250;37.668;2022-08-04T21:45:12;100064.78;;;20.88;69.34
45369;BME280;51342;55.250;37.668;2022-08-04T21:47:43;100069.94;;;20.84;69.17
45369;BME280;51342;55.250;37.668;2022-08-04T21:50:15;100068.03;;;20.78;69.57
45369;BME280;51342;55.250;37.668;2022-08-04T21:52:47;100067.03;;;20.72;69.36
45369;BME280;51342;55.250;37.668;2022-08-04T21:55:19;100063.41;;;20.67;69.61